Time;durP1;ratioP1;P1;durP2;ratioP2;P2;SDS_P1;SDS_P2;PMS_P1;PMS_P2;Temp;Humidity;BMP_temperature;BMP_pressure;BME280_temperature;BME280_humidity;BME280_pressure;Samples;Min_cycle;Max_cycle;Signal;HPM_P1;HPM_P2
2022/05/20 12:30:18;;;;;;;;;13.67;12.67;;;;;23.35;61.01;101316.06;5056031;27;45707;-88
2022/05/20 12:32:49;;;;;;;;;16.33;16.33;;;;;23.49;61.00;101317.38;5046282;28;45411;-81
2022/05/20 12:35:30;;;;;;;;;18.00;16.33;;;;;23.67;60.38;101310.09;5045128;28;45521;-81
2022/05/20 12:37:59;;;;;;;;;14.00;12.00;;;;;23.92;60.46;101314.88;5045379;28;46300;-79
2022/05/20 12:40:24;;;;;;;;;13.00;13.00;;;;;24.15;60.20;101325.25;5043753;28;47630;-78
2022/05/20 12:43:03;;;;;;;;;15.00;13.33;;;;;24.39;59.31;101334.56;5045571;28;45901;-79
2022/05/20 12:45:35;;;;;;;;;13.33;13.33;;;;;24.61;59.04;101320.41;5029959;28;46224;-77
2022/05/20 12:48:01;;;;;;;;;14.00;13.00;;;;;24.82;58.49;101319.19;5036492;28;45591;-79
2022/05/20 12:50:27;;;;;;;;;15.33;13.33;;;;;24.99;57.91;101343.69;5046710;28;46276;-79
2022/05/20 12:52:59;;;;;;;;;13.00;13.00;;;;;25.17;57.44;101350.91;5041924;28;45833;-80
2022/05/20 12:55:28;;;;;;;;;14.67;11.67;;;;;25.32;56.78;101353.81;5045993;28;45474;-77
2022/05/20 12:57:59;;;;;;;;;13.67;13.00;;;;;25.44;56.54;101352.50;5044898;28;46015;-77
2022/05/20 13:00:44;;;;;;;;;12.00;12.00;;;;;25.58;56.30;101359.16;5044763;28;46447;-80
2022/05/20 13:03:32;;;;;;;;;11.67;11.67;;;;;25.68;55.78;101374.47;5046143;28;45473;-82
2022/05/20 13:06:01;;;;;;;;;12.33;12.33;;;;;25.72;55.59;101365.81;5048437;28;45523;-82
2022/05/20 13:08:49;;;;;;;;;13.67;13.33;;;;;25.76;55.45;101359.00;5047521;28;45693;-82
2022/05/20 13:11:16;;;;;;;;;11.67;11.67;;;;;25.81;54.95;101366.66;5048622;28;45647;-82
2022/05/20 13:13:43;;;;;;;;;12.67;12.67;;;;;25.85;55.19;101369.88;5045984;28;45747;-82
2022/05/20 13:16:13;;;;;;;;;12.00;11.33;;;;;25.89;54.76;101377.56;5046041;28;45573;-82
2022/05/20 13:18:41;;;;;;;;;13.33;11.33;;;;;25.89;55.05;101388.44;5046449;28;46568;-82
2022/05/20 13:21:15;;;;;;;;;13.00;11.67;;;;;25.91;54.37;101397.25;5044084;28;45499;-82
2022/05/20 13:23:43;;;;;;;;;12.67;12.67;;;;;25.94;54.81;101398.78;5045575;28;45824;-81
2022/05/20 13:26:22;;;;;;;;;11.00;11.00;;;;;25.97;54.42;101430.22;5045435;28;45534;-82
2022/05/20 13:28:48;;;;;;;;;10.33;10.33;;;;;25.98;53.92;101426.50;5044045;28;45542;-82
2022/05/20 13:31:23;;;;;;;;;12.00;10.33;;;;;26.01;54.67;101423.44;5043971;28;45783;-81
2022/05/20 13:33:49;;;;;;;;;11.00;11.00;;;;;26.05;54.63;101428.41;5031664;28;49307;-78
2022/05/20 13:36:19;;;;;;;;;13.67;11.00;;;;;26.10;54.28;101438.75;5043233;28;45633;-77
2022/05/20 13:39:05;;;;;;;;;14.33;11.33;;;;;26.18;54.17;101451.50;5043950;28;45542;-78
2022/05/20 13:41:33;;;;;;;;;11.33;11.33;;;;;26.25;54.42;101462.59;5033192;28;45591;-78
2022/05/20 13:44:04;;;;;;;;;7.67;7.67;;;;;26.31;54.26;101460.03;5029202;28;45471;-81
2022/05/20 13:49:22;;;;;;;;;11.67;11.67;;;;;26.47;54.19;101481.97;5029910;28;45385;-77
2022/05/20 13:51:55;;;;;;;;;12.00;12.00;;;;;26.50;53.49;101485.22;5031003;28;46099;-80
2022/05/20 13:54:26;;;;;;;;;11.67;11.67;;;;;26.58;53.29;101493.34;5028922;28;45771;-80
2022/05/20 13:56:53;;;;;;;;;10.33;10.33;;;;;26.62;53.48;101496.63;5028088;28;45521;-80
2022/05/20 13:59:27;;;;;;;;;11.00;11.00;;;;;26.63;53.52;101500.16;5029948;28;45502;-84
2022/05/20 14:02:09;;;;;;;;;12.33;10.00;;;;;26.58;53.13;101497.97;5032757;28;45482;-84
2022/05/20 14:04:41;;;;;;;;;10.67;10.00;;;;;26.54;52.84;101504.78;5032420;28;45709;-83
2022/05/20 14:07:11;;;;;;;;;10.33;10.33;;;;;26.51;53.41;101497.81;5027180;28;45490;-84
2022/05/20 14:09:44;;;;;;;;;9.00;9.00;;;;;26.49;52.65;101512.59;5028202;28;45559;-87
2022/05/20 14:12:14;;;;;;;;;7.33;7.33;;;;;26.49;53.13;101518.91;5021229;28;46132;-85
2022/05/20 14:14:41;;;;;;;;;8.00;8.00;;;;;26.49;53.00;101518.91;5035082;28;45530;-83
2022/05/20 14:17:09;;;;;;;;;7.67;7.67;;;;;26.53;53.06;101531.13;5030426;28;45490;-85
2022/05/20 14:19:42;;;;;;;;;9.00;9.00;;;;;26.61;53.21;101538.47;5032550;28;45561;-83
2022/05/20 14:22:11;;;;;;;;;10.00;9.33;;;;;26.68;53.08;101557.69;5031320;28;45554;-89
2022/05/20 14:24:42;;;;;;;;;10.00;10.00;;;;;26.71;52.98;101549.19;5043960;28;45403;-95
2022/05/20 14:27:28;;;;;;;;;11.00;9.33;;;;;26.74;52.98;101553.44;5033936;28;45578;-95
2022/05/20 14:30:12;;;;;;;;;10.00;9.67;;;;;26.75;52.92;101566.88;5042014;28;45597;-96
2022/05/20 14:32:37;;;;;;;;;9.33;9.00;;;;;26.73;52.85;101562.63;5038858;28;46192;-96
2022/05/20 14:35:03;;;;;;;;;12.00;9.67;;;;;26.75;52.19;101582.34;5040157;28;45461;-95
2022/05/20 14:37:33;;;;;;;;;9.00;9.00;;;;;26.75;52.22;101585.06;5025935;28;45419;-91
2022/05/20 14:40:06;;;;;;;;;11.33;10.00;;;;;26.77;52.62;101599.41;5032885;28;45584;-92
2022/05/20 14:42:36;;;;;;;;;9.67;9.67;;;;;26.77;52.37;101585.78;5028647;28;47286;-90
2022/05/20 14:45:07;;;;;;;;;8.67;8.67;;;;;26.77;52.46;101599.41;5033079;28;45607;-88
2022/05/20 14:47:39;;;;;;;;;10.00;10.00;;;;;26.79;52.57;101608.22;5033198;28;45489;-89
2022/05/20 14:50:10;;;;;;;;;9.33;8.33;;;;;26.79;51.65;101608.22;5027910;28;45677;-81
2022/05/20 14:52:43;;;;;;;;;10.00;9.00;;;;;26.86;49.09;101620.16;5027930;28;45474;-82
2022/05/20 14:55:15;;;;;;;;;9.00;9.00;;;;;26.91;48.49;101623.22;5028686;28;45498;-82
2022/05/20 14:57:40;;;;;;;;;10.00;8.67;;;;;26.97;48.58;101624.44;5029069;28;45406;-84
2022/05/20 15:00:20;;;;;;;;;11.67;9.67;;;;;27.04;48.06;101635.50;5031377;28;45845;-84
2022/05/20 15:02:47;;;;;;;;;9.67;8.33;;;;;27.12;47.63;101635.50;5025360;28;47505;-81
2022/05/20 15:05:12;;;;;;;;;9.00;9.00;;;;;27.18;47.19;101639.41;5030568;28;45580;-81
2022/05/20 15:07:40;;;;;;;;;11.00;9.00;;;;;27.23;46.39;101645.19;5029857;28;45562;-81
2022/05/20 15:10:26;;;;;;;;;9.00;9.00;;;;;27.30;46.12;101640.75;5029388;28;45344;-81
2022/05/20 15:12:52;;;;;;;;;7.67;7.00;;;;;27.34;46.73;101647.56;5025526;28;46191;-78
2022/05/20 15:15:19;;;;;;;;;11.00;11.00;;;;;27.43;46.47;101653.00;5021355;28;45636;-82
2022/05/20 15:18:06;;;;;;;;;12.00;9.33;;;;;27.47;45.87;101660.66;5021452;28;45642;-83
2022/05/20 15:20:43;;;;;;;;;13.33;13.33;;;;;27.49;45.38;101664.06;5021748;28;45525;-81
2022/05/20 15:23:36;;;;;;;;;14.33;13.67;;;;;27.52;45.69;101670.19;5023700;28;46531;-81
2022/05/20 15:26:06;;;;;;;;;12.67;11.33;;;;;27.54;45.23;101677.16;5018446;28;45580;-82
2022/05/20 15:28:51;;;;;;;;;14.00;14.00;;;;;27.55;45.07;101675.31;5020405;28;45582;-79
2022/05/20 15:36:58;;;;;;;;;13.67;13.67;;;;;27.63;44.37;101705.31;5024003;28;45558;-79
2022/05/20 15:39:27;;;;;;;;;13.33;12.33;;;;;27.64;44.51;101709.75;5015840;28;45435;-79
2022/05/20 15:41:53;;;;;;;;;14.67;14.67;;;;;27.66;44.36;101724.06;5025671;28;45428;-80
2022/05/20 15:44:19;;;;;;;;;19.33;19.33;;;;;27.67;44.54;101730.38;5016525;28;53052;-79
2022/05/20 15:46:44;;;;;;;;;23.33;21.00;;;;;27.66;44.36;101739.56;5019313;28;46561;-79
2022/05/20 15:49:10;;;;;;;;;18.67;18.67;;;;;27.67;43.67;101738.53;5023686;28;45501;-81
2022/05/20 15:51:35;;;;;;;;;22.67;22.67;;;;;27.62;44.05;101756.28;5023302;28;45367;-82
2022/05/20 15:54:02;;;;;;;;;23.00;20.00;;;;;27.61;43.43;101751.84;5016807;28;46164;-82
2022/05/20 15:56:28;;;;;;;;;21.67;21.67;;;;;27.57;43.61;101757.78;5020907;28;45792;-81
2022/05/20 15:58:55;;;;;;;;;22.00;22.00;;;;;27.54;43.63;101766.31;5018310;28;46525;-83
2022/05/20 16:01:22;;;;;;;;;17.67;17.67;;;;;27.52;43.55;101763.75;5015699;28;45535;-83
2022/05/20 16:03:50;;;;;;;;;18.33;18.33;;;;;27.51;43.17;101769.38;5021390;28;47714;-83
2022/05/20 16:06:19;;;;;;;;;23.33;22.33;;;;;27.51;42.88;101766.66;5017932;28;45426;-84
2022/05/20 16:08:47;;;;;;;;;21.00;20.33;;;;;27.51;42.54;101783.00;5019869;28;45785;-79
2022/05/20 16:11:14;;;;;;;;;18.00;18.00;;;;;27.50;42.89;101784.88;5020703;28;45714;-78
2022/05/20 16:13:39;;;;;;;;;20.00;17.00;;;;;27.49;43.01;101794.94;5017533;28;45395;-78
2022/05/20 16:16:05;;;;;;;;;16.67;16.67;;;;;27.45;42.10;101796.28;5021538;28;46544;-84
